sensor_id;sensor_type;location;lat;lon;timestamp;P1;durP1;ratioP1;P2;durP2;ratioP2
49828;SDS011;35723;51.194;5.112;2022-11-20T00:01:33;31.40;;;16.10;;
49828;SDS011;35723;51.194;5.112;2022-11-20T00:07:27;30.17;;;15.30;;
49828;SDS011;35723;51.194;5.112;2022-11-20T00:13:15;33.63;;;15.13;;
49828;SDS011;35723;51.194;5.112;2022-11-20T00:19:06;29.15;;;14.57;;
49828;SDS011;35723;51.194;5.112;2022-11-20T00:21:33;29.70;;;15.18;;
49828;SDS011;35723;51.194;5.112;2022-11-20T00:23:59;30.48;;;15.52;;
49828;SDS011;35723;51.194;5.112;2022-11-20T00:26:25;30.10;;;15.40;;
49828;SDS011;35723;51.194;5.112;2022-11-20T00:32:13;30.65;;;15.85;;
49828;SDS011;35723;51.194;5.112;2022-11-20T00:38:01;28.63;;;14.15;;
49828;SDS011;35723;51.194;5.112;2022-11-20T00:40:27;28.58;;;14.50;;
49828;SDS011;35723;51.194;5.112;2022-11-20T00:42:52;30.67;;;15.88;;
49828;SDS011;35723;51.194;5.112;2022-11-20T00:45:18;29.15;;;15.23;;
49828;SDS011;35723;51.194;5.112;2022-11-20T00:47:44;31.27;;;15.32;;
49828;SDS011;35723;51.194;5.112;2022-11-20T00:50:09;32.88;;;15.75;;
49828;SDS011;35723;51.194;5.112;2022-11-20T00:52:35;30.27;;;15.93;;
49828;SDS011;35723;51.194;5.112;2022-11-20T00:55:00;30.00;;;15.65;;
49828;SDS011;35723;51.194;5.112;2022-11-20T00:57:26;29.77;;;15.10;;
49828;SDS011;35723;51.194;5.112;2022-11-20T00:59:57;32.08;;;15.50;;
49828;SDS011;35723;51.194;5.112;2022-11-20T01:02:23;30.42;;;15.70;;
49828;SDS011;35723;51.194;5.112;2022-11-20T01:04:49;30.95;;;15.45;;
49828;SDS011;35723;51.194;5.112;2022-11-20T01:07:14;30.58;;;15.32;;
49828;SDS011;35723;51.194;5.112;2022-11-20T01:09:40;29.50;;;15.50;;
49828;SDS011;35723;51.194;5.112;2022-11-20T01:12:06;31.40;;;16.15;;
49828;SDS011;35723;51.194;5.112;2022-11-20T01:14:31;29.48;;;15.00;;
49828;SDS011;35723;51.194;5.112;2022-11-20T01:16:57;32.45;;;16.08;;
49828;SDS011;35723;51.194;5.112;2022-11-20T01:19:23;31.50;;;16.08;;
49828;SDS011;35723;51.194;5.112;2022-11-20T01:21:52;30.17;;;15.52;;
49828;SDS011;35723;51.194;5.112;2022-11-20T01:24:19;30.83;;;16.33;;
49828;SDS011;35723;51.194;5.112;2022-11-20T01:26:47;31.67;;;16.20;;
49828;SDS011;35723;51.194;5.112;2022-11-20T01:29:14;30.38;;;15.85;;
49828;SDS011;35723;51.194;5.112;2022-11-20T01:31:47;32.60;;;15.75;;
49828;SDS011;35723;51.194;5.112;2022-11-20T01:34:14;30.63;;;15.80;;
49828;SDS011;35723;51.194;5.112;2022-11-20T01:36:42;30.35;;;15.15;;
49828;SDS011;35723;51.194;5.112;2022-11-20T01:39:13;30.10;;;14.85;;
49828;SDS011;35723;51.194;5.112;2022-11-20T01:41:40;30.27;;;15.52;;
49828;SDS011;35723;51.194;5.112;2022-11-20T01:47:23;32.75;;;15.88;;
49828;SDS011;35723;51.194;5.112;2022-11-20T01:49:58;28.38;;;15.13;;
49828;SDS011;35723;51.194;5.112;2022-11-20T01:52:37;28.55;;;14.85;;
49828;SDS011;35723;51.194;5.112;2022-11-20T01:55:09;30.27;;;15.63;;
49828;SDS011;35723;51.194;5.112;2022-11-20T01:57:39;30.17;;;14.70;;
49828;SDS011;35723;51.194;5.112;2022-11-20T02:00:09;30.77;;;15.45;;
49828;SDS011;35723;51.194;5.112;2022-11-20T02:02:39;31.17;;;15.73;;
49828;SDS011;35723;51.194;5.112;2022-11-20T02:05:22;30.95;;;15.48;;
49828;SDS011;35723;51.194;5.112;2022-11-20T02:07:48;30.90;;;15.70;;
49828;SDS011;35723;51.194;5.112;2022-11-20T02:10:15;31.38;;;15.15;;
49828;SDS011;35723;51.194;5.112;2022-11-20T02:12:41;29.73;;;14.68;;
49828;SDS011;35723;51.194;5.112;2022-11-20T02:15:26;31.20;;;15.40;;
49828;SDS011;35723;51.194;5.112;2022-11-20T02:17:51;29.83;;;15.80;;
49828;SDS011;35723;51.194;5.112;2022-11-20T02:20:18;33.33;;;15.95;;
49828;SDS011;35723;51.194;5.112;2022-11-20T02:22:48;32.92;;;15.02;;
49828;SDS011;35723;51.194;5.112;2022-11-20T02:25:27;33.67;;;15.85;;
49828;SDS011;35723;51.194;5.112;2022-11-20T02:27:55;32.35;;;15.43;;
49828;SDS011;35723;51.194;5.112;2022-11-20T02:30:21;30.10;;;16.08;;
49828;SDS011;35723;51.194;5.112;2022-11-20T02:32:46;30.17;;;15.73;;
49828;SDS011;35723;51.194;5.112;2022-11-20T02:37:43;29.10;;;14.68;;
49828;SDS011;35723;51.194;5.112;2022-11-20T02:40:12;31.67;;;15.35;;
49828;SDS011;35723;51.194;5.112;2022-11-20T02:42:38;32.25;;;16.27;;
49828;SDS011;35723;51.194;5.112;2022-11-20T02:45:04;30.63;;;15.63;;
49828;SDS011;35723;51.194;5.112;2022-11-20T02:47:31;31.38;;;15.85;;
49828;SDS011;35723;51.194;5.112;2022-11-20T02:49:57;31.88;;;16.40;;
49828;SDS011;35723;51.194;5.112;2022-11-20T02:52:25;32.80;;;16.02;;
49828;SDS011;35723;51.194;5.112;2022-11-20T02:54:51;31.45;;;16.25;;
49828;SDS011;35723;51.194;5.112;2022-11-20T02:57:17;29.73;;;15.45;;
49828;SDS011;35723;51.194;5.112;2022-11-20T02:59:42;29.98;;;15.60;;
49828;SDS011;35723;51.194;5.112;2022-11-20T03:02:08;32.22;;;16.25;;
49828;SDS011;35723;51.194;5.112;2022-11-20T03:04:34;32.38;;;16.63;;
49828;SDS011;35723;51.194;5.112;2022-11-20T03:06:59;31.85;;;15.52;;
49828;SDS011;35723;51.194;5.112;2022-11-20T03:09:25;30.70;;;16.08;;
49828;SDS011;35723;51.194;5.112;2022-11-20T03:11:51;32.15;;;16.02;;
49828;SDS011;35723;51.194;5.112;2022-11-20T03:14:16;31.27;;;16.35;;
49828;SDS011;35723;51.194;5.112;2022-11-20T03:16:44;31.92;;;16.73;;
49828;SDS011;35723;51.194;5.112;2022-11-20T03:19:10;31.58;;;15.68;;
49828;SDS011;35723;51.194;5.112;2022-11-20T03:21:36;29.33;;;15.65;;
49828;SDS011;35723;51.194;5.112;2022-11-20T03:24:02;31.05;;;16.48;;
49828;SDS011;35723;51.194;5.112;2022-11-20T03:26:28;31.42;;;16.70;;
49828;SDS011;35723;51.194;5.112;2022-11-20T03:28:58;29.83;;;15.82;;
49828;SDS011;35723;51.194;5.112;2022-11-20T03:31:29;30.33;;;15.80;;
49828;SDS011;35723;51.194;5.112;2022-11-20T03:33:56;30.40;;;16.10;;
49828;SDS011;35723;51.194;5.112;2022-11-20T03:36:23;30.92;;;16.38;;
49828;SDS011;35723;51.194;5.112;2022-11-20T03:38:49;31.85;;;16.50;;
49828;SDS011;35723;51.194;5.112;2022-11-20T03:41:16;31.30;;;15.38;;
49828;SDS011;35723;51.194;5.112;2022-11-20T03:43:48;30.90;;;15.05;;
49828;SDS011;35723;51.194;5.112;2022-11-20T03:46:18;30.17;;;14.80;;
49828;SDS011;35723;51.194;5.112;2022-11-20T03:48:44;30.30;;;15.93;;
49828;SDS011;35723;51.194;5.112;2022-11-20T03:51:14;31.17;;;15.55;;
49828;SDS011;35723;51.194;5.112;2022-11-20T03:53:50;28.92;;;15.23;;
49828;SDS011;35723;51.194;5.112;2022-11-20T03:56:17;32.88;;;15.77;;
49828;SDS011;35723;51.194;5.112;2022-11-20T03:58:44;32.63;;;15.43;;
49828;SDS011;35723;51.194;5.112;2022-11-20T04:01:14;29.30;;;15.25;;
49828;SDS011;35723;51.194;5.112;2022-11-20T04:03:42;31.13;;;15.00;;
49828;SDS011;35723;51.194;5.112;2022-11-20T04:06:11;30.13;;;15.57;;
49828;SDS011;35723;51.194;5.112;2022-11-20T04:08:38;33.45;;;15.20;;
49828;SDS011;35723;51.194;5.112;2022-11-20T04:11:11;30.42;;;15.52;;
49828;SDS011;35723;51.194;5.112;2022-11-20T04:13:40;29.83;;;15.40;;
49828;SDS011;35723;51.194;5.112;2022-11-20T04:16:07;29.90;;;14.68;;
49828;SDS011;35723;51.194;5.112;2022-11-20T04:18:34;34.78;;;15.45;;
49828;SDS011;35723;51.194;5.112;2022-11-20T04:21:00;29.67;;;15.55;;
49828;SDS011;35723;51.194;5.112;2022-11-20T04:23:26;30.30;;;15.43;;
49828;SDS011;35723;51.194;5.112;2022-11-20T04:25:52;49.90;;;16.83;;
49828;SDS011;35723;51.194;5.112;2022-11-20T04:28:18;28.73;;;15.60;;
49828;SDS011;35723;51.194;5.112;2022-11-20T04:30:44;32.08;;;16.42;;
49828;SDS011;35723;51.194;5.112;2022-11-20T04:33:10;28.52;;;14.77;;
49828;SDS011;35723;51.194;5.112;2022-11-20T04:35:36;31.60;;;16.15;;
49828;SDS011;35723;51.194;5.112;2022-11-20T04:38:03;27.95;;;14.63;;
49828;SDS011;35723;51.194;5.112;2022-11-20T04:40:29;30.77;;;15.18;;
49828;SDS011;35723;51.194;5.112;2022-11-20T04:42:55;28.15;;;15.25;;
49828;SDS011;35723;51.194;5.112;2022-11-20T04:45:24;29.90;;;15.60;;
49828;SDS011;35723;51.194;5.112;2022-11-20T04:47:50;30.05;;;15.57;;
49828;SDS011;35723;51.194;5.112;2022-11-20T04:50:16;33.50;;;16.55;;
49828;SDS011;35723;51.194;5.112;2022-11-20T04:52:41;31.98;;;15.68;;
49828;SDS011;35723;51.194;5.112;2022-11-20T04:55:07;31.88;;;15.85;;
49828;SDS011;35723;51.194;5.112;2022-11-20T04:57:33;30.67;;;15.25;;
49828;SDS011;35723;51.194;5.112;2022-11-20T04:59:58;30.25;;;15.55;;
49828;SDS011;35723;51.194;5.112;2022-11-20T05:02:24;29.40;;;15.73;;
49828;SDS011;35723;51.194;5.112;2022-11-20T05:04:50;31.10;;;15.88;;
49828;SDS011;35723;51.194;5.112;2022-11-20T05:07:16;33.25;;;16.20;;
49828;SDS011;35723;51.194;5.112;2022-11-20T05:09:41;31.35;;;17.00;;
49828;SDS011;35723;51.194;5.112;2022-11-20T05:12:07;30.67;;;16.05;;
49828;SDS011;35723;51.194;5.112;2022-11-20T05:14:33;30.85;;;16.50;;
49828;SDS011;35723;51.194;5.112;2022-11-20T05:16:59;32.85;;;16.88;;
49828;SDS011;35723;51.194;5.112;2022-11-20T05:19:25;33.15;;;17.08;;
49828;SDS011;35723;51.194;5.112;2022-11-20T05:21:50;34.00;;;16.73;;
49828;SDS011;35723;51.194;5.112;2022-11-20T05:24:16;31.65;;;16.38;;
49828;SDS011;35723;51.194;5.112;2022-11-20T05:26:42;34.00;;;16.73;;
49828;SDS011;35723;51.194;5.112;2022-11-20T05:29:09;31.92;;;17.33;;
49828;SDS011;35723;51.194;5.112;2022-11-20T05:31:36;31.63;;;16.75;;
49828;SDS011;35723;51.194;5.112;2022-11-20T05:34:04;33.53;;;17.20;;
49828;SDS011;35723;51.194;5.112;2022-11-20T05:36:30;33.35;;;18.10;;
49828;SDS011;35723;51.194;5.112;2022-11-20T05:38:56;33.63;;;16.92;;
49828;SDS011;35723;51.194;5.112;2022-11-20T05:41:21;34.72;;;18.58;;
49828;SDS011;35723;51.194;5.112;2022-11-20T05:43:47;32.50;;;17.63;;
49828;SDS011;35723;51.194;5.112;2022-11-20T05:46:15;35.42;;;18.00;;
49828;SDS011;35723;51.194;5.112;2022-11-20T05:48:42;32.40;;;17.13;;
49828;SDS011;35723;51.194;5.112;2022-11-20T05:51:10;31.45;;;16.42;;
49828;SDS011;35723;51.194;5.112;2022-11-20T05:53:37;33.85;;;17.15;;
49828;SDS011;35723;51.194;5.112;2022-11-20T05:56:08;34.75;;;17.88;;
49828;SDS011;35723;51.194;5.112;2022-11-20T05:58:36;36.47;;;18.95;;
49828;SDS011;35723;51.194;5.112;2022-11-20T06:01:12;36.38;;;18.17;;
49828;SDS011;35723;51.194;5.112;2022-11-20T06:03:45;34.78;;;17.77;;
49828;SDS011;35723;51.194;5.112;2022-11-20T06:06:12;36.35;;;18.90;;
49828;SDS011;35723;51.194;5.112;2022-11-20T06:08:39;39.22;;;17.92;;
49828;SDS011;35723;51.194;5.112;2022-11-20T06:11:05;34.58;;;18.25;;
49828;SDS011;35723;51.194;5.112;2022-11-20T06:13:36;35.58;;;18.35;;
49828;SDS011;35723;51.194;5.112;2022-11-20T06:16:02;36.40;;;17.92;;
49828;SDS011;35723;51.194;5.112;2022-11-20T06:18:31;39.90;;;19.40;;
49828;SDS011;35723;51.194;5.112;2022-11-20T06:23:45;37.38;;;18.02;;
49828;SDS011;35723;51.194;5.112;2022-11-20T06:26:20;42.15;;;20.85;;
49828;SDS011;35723;51.194;5.112;2022-11-20T06:31:34;41.30;;;20.08;;
49828;SDS011;35723;51.194;5.112;2022-11-20T06:34:03;38.92;;;18.75;;
49828;SDS011;35723;51.194;5.112;2022-11-20T06:36:29;38.58;;;17.95;;
49828;SDS011;35723;51.194;5.112;2022-11-20T06:38:55;46.15;;;19.85;;
49828;SDS011;35723;51.194;5.112;2022-11-20T06:41:21;41.55;;;19.45;;
49828;SDS011;35723;51.194;5.112;2022-11-20T06:43:47;42.05;;;19.27;;
49828;SDS011;35723;51.194;5.112;2022-11-20T06:46:13;44.03;;;19.42;;
49828;SDS011;35723;51.194;5.112;2022-11-20T06:48:43;45.60;;;20.38;;
49828;SDS011;35723;51.194;5.112;2022-11-20T06:51:09;42.05;;;19.55;;
49828;SDS011;35723;51.194;5.112;2022-11-20T06:53:35;47.50;;;21.05;;
49828;SDS011;35723;51.194;5.112;2022-11-20T06:56:03;44.50;;;19.48;;
49828;SDS011;35723;51.194;5.112;2022-11-20T06:58:29;46.75;;;20.73;;
49828;SDS011;35723;51.194;5.112;2022-11-20T07:00:59;46.42;;;21.98;;
49828;SDS011;35723;51.194;5.112;2022-11-20T07:03:26;46.92;;;21.27;;
49828;SDS011;35723;51.194;5.112;2022-11-20T07:05:53;46.72;;;19.63;;
49828;SDS011;35723;51.194;5.112;2022-11-20T07:08:20;42.75;;;19.58;;
49828;SDS011;35723;51.194;5.112;2022-11-20T07:10:46;49.83;;;21.67;;
49828;SDS011;35723;51.194;5.112;2022-11-20T07:13:17;51.80;;;22.15;;
49828;SDS011;35723;51.194;5.112;2022-11-20T07:15:43;58.33;;;25.30;;
49828;SDS011;35723;51.194;5.112;2022-11-20T07:18:09;53.28;;;25.17;;
49828;SDS011;35723;51.194;5.112;2022-11-20T07:20:34;57.22;;;24.60;;
49828;SDS011;35723;51.194;5.112;2022-11-20T07:23:00;55.78;;;24.83;;
49828;SDS011;35723;51.194;5.112;2022-11-20T07:25:26;52.33;;;24.40;;
49828;SDS011;35723;51.194;5.112;2022-11-20T07:37:40;55.20;;;25.00;;
49828;SDS011;35723;51.194;5.112;2022-11-20T07:40:06;55.72;;;26.35;;
49828;SDS011;35723;51.194;5.112;2022-11-20T07:42:31;55.25;;;25.35;;
49828;SDS011;35723;51.194;5.112;2022-11-20T07:48:24;57.15;;;25.63;;
49828;SDS011;35723;51.194;5.112;2022-11-20T07:50:52;53.28;;;25.80;;
49828;SDS011;35723;51.194;5.112;2022-11-20T07:53:33;52.17;;;24.90;;
49828;SDS011;35723;51.194;5.112;2022-11-20T08:16:03;56.78;;;26.73;;
49828;SDS011;35723;51.194;5.112;2022-11-20T08:31:53;62.60;;;29.45;;
49828;SDS011;35723;51.194;5.112;2022-11-20T08:51:34;67.78;;;31.58;;
49828;SDS011;35723;51.194;5.112;2022-11-20T11:09:33;65.18;;;28.13;;
49828;SDS011;35723;51.194;5.112;2022-11-20T11:12:05;64.80;;;28.55;;
49828;SDS011;35723;51.194;5.112;2022-11-20T11:14:53;65.53;;;29.45;;
49828;SDS011;35723;51.194;5.112;2022-11-20T11:17:22;69.00;;;29.58;;
49828;SDS011;35723;51.194;5.112;2022-11-20T11:20:00;73.65;;;29.77;;
49828;SDS011;35723;51.194;5.112;2022-11-20T11:22:30;67.97;;;29.48;;
49828;SDS011;35723;51.194;5.112;2022-11-20T11:24:57;70.68;;;30.15;;
49828;SDS011;35723;51.194;5.112;2022-11-20T11:27:23;72.38;;;30.48;;
49828;SDS011;35723;51.194;5.112;2022-11-20T11:29:49;72.78;;;30.33;;
49828;SDS011;35723;51.194;5.112;2022-11-20T11:32:18;72.55;;;30.02;;
49828;SDS011;35723;51.194;5.112;2022-11-20T11:34:58;67.82;;;29.75;;
49828;SDS011;35723;51.194;5.112;2022-11-20T11:37:32;68.90;;;29.27;;
49828;SDS011;35723;51.194;5.112;2022-11-20T11:40:00;71.40;;;29.17;;
49828;SDS011;35723;51.194;5.112;2022-11-20T11:42:27;71.90;;;32.88;;
49828;SDS011;35723;51.194;5.112;2022-11-20T11:44:54;96.72;;;48.05;;
49828;SDS011;35723;51.194;5.112;2022-11-20T11:47:42;97.93;;;45.88;;
49828;SDS011;35723;51.194;5.112;2022-11-20T11:58:45;121.00;;;42.17;;
49828;SDS011;35723;51.194;5.112;2022-11-20T12:03:43;80.60;;;33.05;;
49828;SDS011;35723;51.194;5.112;2022-11-20T12:06:17;68.68;;;30.00;;
49828;SDS011;35723;51.194;5.112;2022-11-20T12:12:40;72.13;;;29.88;;
49828;SDS011;35723;51.194;5.112;2022-11-20T12:14:42;70.70;;;29.17;;
49828;SDS011;35723;51.194;5.112;2022-11-20T12:17:11;71.00;;;28.35;;
49828;SDS011;35723;51.194;5.112;2022-11-20T12:19:38;75.90;;;29.35;;
49828;SDS011;35723;51.194;5.112;2022-11-20T12:27:41;71.93;;;30.65;;
49828;SDS011;35723;51.194;5.112;2022-11-20T12:30:16;70.72;;;29.90;;
49828;SDS011;35723;51.194;5.112;2022-11-20T12:51:32;76.03;;;33.67;;
49828;SDS011;35723;51.194;5.112;2022-11-20T12:57:09;68.50;;;29.42;;
49828;SDS011;35723;51.194;5.112;2022-11-20T13:02:46;65.93;;;28.85;;
49828;SDS011;35723;51.194;5.112;2022-11-20T13:08:55;62.40;;;27.33;;
49828;SDS011;35723;51.194;5.112;2022-11-20T13:13:56;60.10;;;26.70;;
49828;SDS011;35723;51.194;5.112;2022-11-20T13:19:18;62.30;;;25.50;;
49828;SDS011;35723;51.194;5.112;2022-11-20T13:21:45;61.05;;;25.73;;
49828;SDS011;35723;51.194;5.112;2022-11-20T13:29:38;60.05;;;25.40;;
49828;SDS011;35723;51.194;5.112;2022-11-20T13:32:17;62.25;;;25.75;;
49828;SDS011;35723;51.194;5.112;2022-11-20T13:34:52;57.10;;;24.45;;
49828;SDS011;35723;51.194;5.112;2022-11-20T13:37:32;55.80;;;25.30;;
49828;SDS011;35723;51.194;5.112;2022-11-20T13:42:45;56.92;;;24.90;;
49828;SDS011;35723;51.194;5.112;2022-11-20T13:45:29;50.85;;;22.27;;
49828;SDS011;35723;51.194;5.112;2022-11-20T13:47:56;56.17;;;23.33;;
49828;SDS011;35723;51.194;5.112;2022-11-20T14:01:10;27.23;;;10.10;;
49828;SDS011;35723;51.194;5.112;2022-11-20T14:03:44;26.33;;;9.00;;
49828;SDS011;35723;51.194;5.112;2022-11-20T14:06:15;23.23;;;7.93;;
49828;SDS011;35723;51.194;5.112;2022-11-20T14:08:51;21.48;;;7.32;;
49828;SDS011;35723;51.194;5.112;2022-11-20T14:11:18;20.25;;;7.38;;
49828;SDS011;35723;51.194;5.112;2022-11-20T14:13:57;17.23;;;6.10;;
49828;SDS011;35723;51.194;5.112;2022-11-20T14:16:24;20.95;;;6.50;;
49828;SDS011;35723;51.194;5.112;2022-11-20T14:18:51;21.27;;;6.22;;
49828;SDS011;35723;51.194;5.112;2022-11-20T14:21:35;16.52;;;6.63;;
49828;SDS011;35723;51.194;5.112;2022-11-20T14:24:09;18.67;;;7.53;;
49828;SDS011;35723;51.194;5.112;2022-11-20T14:26:37;20.48;;;8.23;;
49828;SDS011;35723;51.194;5.112;2022-11-20T14:29:12;19.90;;;7.90;;
49828;SDS011;35723;51.194;5.112;2022-11-20T14:31:39;16.52;;;6.85;;
49828;SDS011;35723;51.194;5.112;2022-11-20T14:34:11;16.35;;;6.07;;
49828;SDS011;35723;51.194;5.112;2022-11-20T14:36:43;15.77;;;5.60;;
49828;SDS011;35723;51.194;5.112;2022-11-20T14:39:11;18.67;;;6.25;;
49828;SDS011;35723;51.194;5.112;2022-11-20T14:41:50;19.20;;;5.65;;
49828;SDS011;35723;51.194;5.112;2022-11-20T14:44:17;17.40;;;4.78;;
49828;SDS011;35723;51.194;5.112;2022-11-20T14:46:45;19.05;;;5.57;;
49828;SDS011;35723;51.194;5.112;2022-11-20T14:49:10;18.60;;;5.95;;
49828;SDS011;35723;51.194;5.112;2022-11-20T14:51:38;19.60;;;5.20;;
49828;SDS011;35723;51.194;5.112;2022-11-20T14:54:11;17.13;;;5.50;;
49828;SDS011;35723;51.194;5.112;2022-11-20T14:57:02;20.67;;;7.10;;
49828;SDS011;35723;51.194;5.112;2022-11-20T14:59:30;19.38;;;8.07;;
49828;SDS011;35723;51.194;5.112;2022-11-20T15:02:08;23.02;;;7.68;;
49828;SDS011;35723;51.194;5.112;2022-11-20T15:04:48;26.20;;;8.80;;
49828;SDS011;35723;51.194;5.112;2022-11-20T15:07:28;20.08;;;7.68;;
49828;SDS011;35723;51.194;5.112;2022-11-20T15:10:03;17.77;;;6.95;;
49828;SDS011;35723;51.194;5.112;2022-11-20T15:12:30;21.08;;;7.85;;
49828;SDS011;35723;51.194;5.112;2022-11-20T15:14:58;18.17;;;7.18;;
49828;SDS011;35723;51.194;5.112;2022-11-20T15:17:26;19.75;;;7.18;;
49828;SDS011;35723;51.194;5.112;2022-11-20T15:19:52;16.80;;;6.82;;
49828;SDS011;35723;51.194;5.112;2022-11-20T15:22:19;16.73;;;6.60;;
49828;SDS011;35723;51.194;5.112;2022-11-20T15:24:45;17.70;;;7.30;;
49828;SDS011;35723;51.194;5.112;2022-11-20T15:27:10;16.20;;;7.25;;
49828;SDS011;35723;51.194;5.112;2022-11-20T15:29:37;18.88;;;7.97;;
49828;SDS011;35723;51.194;5.112;2022-11-20T15:32:02;21.13;;;9.02;;
49828;SDS011;35723;51.194;5.112;2022-11-20T15:34:28;18.55;;;8.85;;
49828;SDS011;35723;51.194;5.112;2022-11-20T15:36:54;19.00;;;9.30;;
49828;SDS011;35723;51.194;5.112;2022-11-20T15:39:19;21.15;;;9.30;;
49828;SDS011;35723;51.194;5.112;2022-11-20T15:41:45;19.27;;;8.23;;
49828;SDS011;35723;51.194;5.112;2022-11-20T15:44:12;16.40;;;7.45;;
49828;SDS011;35723;51.194;5.112;2022-11-20T15:46:38;16.17;;;7.22;;
49828;SDS011;35723;51.194;5.112;2022-11-20T15:49:11;15.77;;;6.60;;
49828;SDS011;35723;51.194;5.112;2022-11-20T15:51:39;14.57;;;5.80;;
49828;SDS011;35723;51.194;5.112;2022-11-20T15:54:18;13.02;;;5.72;;
49828;SDS011;35723;51.194;5.112;2022-11-20T15:56:46;12.05;;;5.50;;
49828;SDS011;35723;51.194;5.112;2022-11-20T15:59:12;14.30;;;5.75;;
49828;SDS011;35723;51.194;5.112;2022-11-20T16:01:39;14.73;;;6.07;;
49828;SDS011;35723;51.194;5.112;2022-11-20T16:04:13;14.23;;;6.03;;
49828;SDS011;35723;51.194;5.112;2022-11-20T16:06:40;13.93;;;5.95;;
49828;SDS011;35723;51.194;5.112;2022-11-20T16:09:06;15.15;;;6.15;;
49828;SDS011;35723;51.194;5.112;2022-11-20T16:11:32;12.70;;;5.43;;
49828;SDS011;35723;51.194;5.112;2022-11-20T16:13:58;12.50;;;5.95;;
49828;SDS011;35723;51.194;5.112;2022-11-20T16:16:42;14.15;;;6.38;;
49828;SDS011;35723;51.194;5.112;2022-11-20T16:19:11;15.88;;;6.50;;
49828;SDS011;35723;51.194;5.112;2022-11-20T16:21:38;15.15;;;6.55;;
49828;SDS011;35723;51.194;5.112;2022-11-20T16:24:06;14.48;;;6.68;;
49828;SDS011;35723;51.194;5.112;2022-11-20T16:26:33;14.95;;;7.25;;
49828;SDS011;35723;51.194;5.112;2022-11-20T16:29:01;17.52;;;7.53;;
49828;SDS011;35723;51.194;5.112;2022-11-20T16:31:28;13.52;;;6.95;;
49828;SDS011;35723;51.194;5.112;2022-11-20T16:33:55;17.77;;;7.50;;
49828;SDS011;35723;51.194;5.112;2022-11-20T16:36:23;17.45;;;7.38;;
49828;SDS011;35723;51.194;5.112;2022-11-20T16:38:53;18.25;;;8.25;;
49828;SDS011;35723;51.194;5.112;2022-11-20T16:41:23;19.58;;;8.80;;
49828;SDS011;35723;51.194;5.112;2022-11-20T16:43:54;15.98;;;7.82;;
49828;SDS011;35723;51.194;5.112;2022-11-20T16:46:22;20.88;;;9.25;;
49828;SDS011;35723;51.194;5.112;2022-11-20T16:48:58;18.13;;;8.73;;
49828;SDS011;35723;51.194;5.112;2022-11-20T16:51:44;18.17;;;8.30;;
49828;SDS011;35723;51.194;5.112;2022-11-20T16:54:11;22.55;;;9.00;;
49828;SDS011;35723;51.194;5.112;2022-11-20T16:56:36;21.85;;;9.10;;
49828;SDS011;35723;51.194;5.112;2022-11-20T16:59:03;22.63;;;9.65;;
49828;SDS011;35723;51.194;5.112;2022-11-20T17:01:29;24.33;;;9.55;;
49828;SDS011;35723;51.194;5.112;2022-11-20T17:06:29;21.30;;;8.63;;
49828;SDS011;35723;51.194;5.112;2022-11-20T17:08:56;27.45;;;8.60;;
49828;SDS011;35723;51.194;5.112;2022-11-20T17:11:22;23.73;;;8.30;;
49828;SDS011;35723;51.194;5.112;2022-11-20T17:13:48;22.20;;;8.25;;
49828;SDS011;35723;51.194;5.112;2022-11-20T17:16:15;23.23;;;8.13;;
49828;SDS011;35723;51.194;5.112;2022-11-20T17:18:43;21.27;;;8.02;;
49828;SDS011;35723;51.194;5.112;2022-11-20T17:21:08;23.40;;;7.30;;
49828;SDS011;35723;51.194;5.112;2022-11-20T17:23:36;22.42;;;8.05;;
49828;SDS011;35723;51.194;5.112;2022-11-20T17:26:03;24.98;;;7.55;;
49828;SDS011;35723;51.194;5.112;2022-11-20T17:28:31;22.33;;;7.30;;
49828;SDS011;35723;51.194;5.112;2022-11-20T17:31:00;33.28;;;9.13;;
49828;SDS011;35723;51.194;5.112;2022-11-20T17:33:28;29.02;;;7.90;;
49828;SDS011;35723;51.194;5.112;2022-11-20T17:35:54;29.63;;;7.97;;
49828;SDS011;35723;51.194;5.112;2022-11-20T17:38:19;23.33;;;7.07;;
49828;SDS011;35723;51.194;5.112;2022-11-20T17:40:45;24.17;;;7.70;;
49828;SDS011;35723;51.194;5.112;2022-11-20T17:43:11;31.20;;;7.57;;
49828;SDS011;35723;51.194;5.112;2022-11-20T17:45:36;24.95;;;7.40;;
49828;SDS011;35723;51.194;5.112;2022-11-20T17:48:02;28.30;;;8.35;;
49828;SDS011;35723;51.194;5.112;2022-11-20T17:50:28;28.80;;;7.13;;
49828;SDS011;35723;51.194;5.112;2022-11-20T17:52:54;26.45;;;7.25;;
49828;SDS011;35723;51.194;5.112;2022-11-20T17:55:19;28.63;;;7.30;;
49828;SDS011;35723;51.194;5.112;2022-11-20T17:57:45;26.98;;;7.93;;
49828;SDS011;35723;51.194;5.112;2022-11-20T18:00:16;26.15;;;7.30;;
49828;SDS011;35723;51.194;5.112;2022-11-20T18:02:42;27.23;;;7.70;;
49828;SDS011;35723;51.194;5.112;2022-11-20T18:05:08;29.67;;;7.38;;
49828;SDS011;35723;51.194;5.112;2022-11-20T18:07:34;29.85;;;7.65;;
49828;SDS011;35723;51.194;5.112;2022-11-20T18:09:59;29.90;;;7.22;;
49828;SDS011;35723;51.194;5.112;2022-11-20T18:12:25;31.20;;;7.07;;
49828;SDS011;35723;51.194;5.112;2022-11-20T18:14:51;28.75;;;6.68;;
49828;SDS011;35723;51.194;5.112;2022-11-20T18:17:16;35.00;;;7.82;;
49828;SDS011;35723;51.194;5.112;2022-11-20T18:19:43;32.78;;;7.43;;
49828;SDS011;35723;51.194;5.112;2022-11-20T18:22:10;31.60;;;8.10;;
49828;SDS011;35723;51.194;5.112;2022-11-20T18:24:37;29.50;;;7.57;;
49828;SDS011;35723;51.194;5.112;2022-11-20T18:27:06;33.70;;;7.53;;
49828;SDS011;35723;51.194;5.112;2022-11-20T18:29:37;30.73;;;8.20;;
49828;SDS011;35723;51.194;5.112;2022-11-20T18:32:03;31.52;;;7.20;;
49828;SDS011;35723;51.194;5.112;2022-11-20T18:34:29;26.45;;;7.82;;
49828;SDS011;35723;51.194;5.112;2022-11-20T18:36:55;32.50;;;7.63;;
49828;SDS011;35723;51.194;5.112;2022-11-20T18:39:21;27.95;;;7.40;;
49828;SDS011;35723;51.194;5.112;2022-11-20T18:41:48;32.08;;;6.85;;
49828;SDS011;35723;51.194;5.112;2022-11-20T18:44:32;27.80;;;6.90;;
49828;SDS011;35723;51.194;5.112;2022-11-20T18:47:23;29.27;;;7.55;;
49828;SDS011;35723;51.194;5.112;2022-11-20T18:49:52;24.83;;;7.30;;
49828;SDS011;35723;51.194;5.112;2022-11-20T18:52:23;30.13;;;7.43;;
49828;SDS011;35723;51.194;5.112;2022-11-20T18:54:51;29.75;;;7.20;;
49828;SDS011;35723;51.194;5.112;2022-11-20T18:57:17;32.38;;;7.53;;
49828;SDS011;35723;51.194;5.112;2022-11-20T18:59:44;27.73;;;7.18;;
49828;SDS011;35723;51.194;5.112;2022-11-20T19:02:11;28.10;;;7.38;;
49828;SDS011;35723;51.194;5.112;2022-11-20T19:04:38;27.42;;;6.78;;
49828;SDS011;35723;51.194;5.112;2022-11-20T19:07:04;27.83;;;6.97;;
49828;SDS011;35723;51.194;5.112;2022-11-20T19:09:30;30.52;;;7.45;;
49828;SDS011;35723;51.194;5.112;2022-11-20T19:11:55;26.30;;;6.57;;
49828;SDS011;35723;51.194;5.112;2022-11-20T19:14:21;28.58;;;6.63;;
49828;SDS011;35723;51.194;5.112;2022-11-20T19:16:47;27.17;;;6.93;;
49828;SDS011;35723;51.194;5.112;2022-11-20T19:19:13;28.58;;;6.95;;
49828;SDS011;35723;51.194;5.112;2022-11-20T19:21:39;24.77;;;6.35;;
49828;SDS011;35723;51.194;5.112;2022-11-20T19:24:06;27.25;;;7.20;;
49828;SDS011;35723;51.194;5.112;2022-11-20T19:26:36;29.92;;;6.82;;
49828;SDS011;35723;51.194;5.112;2022-11-20T19:29:02;29.02;;;6.43;;
49828;SDS011;35723;51.194;5.112;2022-11-20T19:31:29;27.83;;;6.50;;
49828;SDS011;35723;51.194;5.112;2022-11-20T19:33:56;25.23;;;6.57;;
49828;SDS011;35723;51.194;5.112;2022-11-20T19:36:27;23.02;;;6.70;;